Time;durP1;ratioP1;P1;durP2;ratioP2;P2;SDS_P1;SDS_P2;PMS_P1;PMS_P2;Temp;Humidity;BMP_temperature;BMP_pressure;BME280_temperature;BME280_humidity;BME280_pressure;Samples;Min_cycle;Max_cycle;Signal;HPM_P1;HPM_P2
2023/05/17 00:01:29;;;;;;;21.15;4.40;;;;;;;9.40;100.00;102627.50;4989255;28;20054;-63
2023/05/17 00:03:55;;;;;;;23.15;4.65;;;;;;;9.42;100.00;102619.59;4987782;28;20054;-62
2023/05/17 00:06:21;;;;;;;11.23;4.13;;;;;;;9.47;100.00;102617.81;4987985;28;20026;-61
2023/05/17 00:08:46;;;;;;;20.77;4.85;;;;;;;9.48;100.00;102614.31;4989384;28;20034;-62
2023/05/17 00:11:11;;;;;;;19.65;5.18;;;;;;;9.52;100.00;102621.34;4987786;28;20109;-62
2023/05/17 00:13:38;;;;;;;16.35;5.82;;;;;;;9.52;100.00;102620.47;4984855;28;20184;-63
2023/05/17 00:16:04;;;;;;;11.13;4.43;;;;;;;9.54;100.00;102619.56;4988972;28;20026;-62
2023/05/17 00:18:30;;;;;;;18.95;4.20;;;;;;;9.59;100.00;102625.72;4988569;28;20064;-62
2023/05/17 00:20:55;;;;;;;16.73;4.88;;;;;;;9.50;100.00;102636.25;4989162;28;20029;-62
2023/05/17 00:23:20;;;;;;;14.77;4.15;;;;;;;9.55;100.00;102630.97;4986918;28;20026;-62
2023/05/17 00:25:46;;;;;;;16.20;4.35;;;;;;;9.59;100.00;102636.25;4987661;28;20146;-63
2023/05/17 00:28:11;;;;;;;14.30;4.20;;;;;;;9.61;100.00;102636.25;4989387;28;20106;-64
2023/05/17 00:30:36;;;;;;;16.95;5.00;;;;;;;9.64;100.00;102640.63;4988792;28;20709;-62
2023/05/17 00:33:03;;;;;;;20.48;5.18;;;;;;;9.64;100.00;102627.47;4988757;28;20034;-62
2023/05/17 00:35:28;;;;;;;17.42;4.65;;;;;;;9.62;100.00;102632.72;4988673;28;20525;-62
2023/05/17 00:37:53;;;;;;;19.10;4.65;;;;;;;9.66;100.00;102629.22;5005626;28;20124;-62
2023/05/17 00:40:19;;;;;;;26.40;5.05;;;;;;;9.68;100.00;102638.00;5007281;28;20030;-62
2023/05/17 00:42:44;;;;;;;24.75;4.85;;;;;;;9.72;100.00;102629.19;5008008;28;20049;-63
2023/05/17 00:45:10;;;;;;;25.23;5.13;;;;;;;9.77;100.00;102629.19;5001629;28;20513;-66
2023/05/17 00:47:35;;;;;;;16.20;4.57;;;;;;;9.84;100.00;102630.06;4987125;28;20044;-61
2023/05/17 00:50:01;;;;;;;17.27;4.47;;;;;;;9.86;100.00;102631.81;4987714;28;20049;-62
2023/05/17 00:52:26;;;;;;;21.70;4.78;;;;;;;9.81;100.00;102630.09;4988468;28;20031;-62
2023/05/17 00:54:51;;;;;;;16.95;4.82;;;;;;;9.86;100.00;102636.19;5018284;28;20030;-62
2023/05/17 00:57:17;;;;;;;21.02;4.93;;;;;;;9.85;100.00;102635.31;4988001;28;20030;-62
2023/05/17 00:59:43;;;;;;;23.23;4.72;;;;;;;9.83;100.00;102620.41;5018577;28;20030;-65
2023/05/17 01:02:10;;;;;;;15.48;4.43;;;;;;;9.78;100.00;102630.09;4985870;28;20061;-61
2023/05/17 01:04:36;;;;;;;22.13;4.57;;;;;;;9.69;100.00;102638.88;4987728;28;20030;-63
2023/05/17 01:07:02;;;;;;;16.88;4.50;;;;;;;9.65;100.00;102643.25;4987649;28;20485;-61
2023/05/17 01:09:28;;;;;;;15.68;4.72;;;;;;;9.65;100.00;102635.34;4969080;28;20065;-61
2023/05/17 01:11:58;;;;;;;19.38;4.50;;;;;;;9.65;100.00;102631.84;4965539;28;20034;-62
2023/05/17 01:14:26;;;;;;;17.58;4.45;;;;;;;9.68;100.00;102631.84;4967919;28;20042;-63
2023/05/17 01:16:58;;;;;;;19.00;5.43;;;;;;;9.72;100.00;102636.22;4968669;28;20035;-62
2023/05/17 01:20:02;;;;;;;21.52;5.32;;;;;;;9.78;100.00;102630.94;5005721;28;20033;-62
2023/05/17 01:23:02;;;;;;;24.23;4.95;;;;;;;9.80;100.00;102623.94;4995502;28;20026;-63
2023/05/17 01:25:41;;;;;;;17.30;4.82;;;;;;;9.88;100.00;102628.31;4973137;28;20042;-62
2023/05/17 01:28:07;;;;;;;17.95;4.85;;;;;;;9.91;100.00;102623.03;4986107;28;20030;-63
2023/05/17 01:30:33;;;;;;;20.17;4.40;;;;;;;9.97;100.00;102618.59;4987021;28;20026;-62
2023/05/17 01:32:59;;;;;;;20.48;5.18;;;;;;;9.97;100.00;102623.88;4986806;28;20066;-63
2023/05/17 01:35:25;;;;;;;17.08;4.38;;;;;;;10.00;100.00;102630.91;5027877;28;20068;-62
2023/05/17 01:37:53;;;;;;;18.25;4.85;;;;;;;10.07;100.00;102627.38;4984121;28;20058;-64
2023/05/17 01:40:20;;;;;;;13.40;4.53;;;;;;;10.07;100.00;102632.66;4967837;28;20094;-61
2023/05/17 01:42:48;;;;;;;26.92;4.55;;;;;;;10.09;100.00;102633.50;4971671;28;20055;-63
2023/05/17 01:45:37;;;;;;;21.52;4.45;;;;;;;10.07;100.00;102631.75;4986211;28;20029;-62
2023/05/17 01:48:27;;;;;;;20.83;4.53;;;;;;;10.02;100.00;102642.31;4984610;28;20042;-62
2023/05/17 01:50:55;;;;;;;17.67;5.22;;;;;;;9.96;100.00;102631.78;5018510;28;20022;-60
2023/05/17 01:53:32;;;;;;;16.45;4.40;;;;;;;10.01;100.00;102629.13;4978342;28;20073;-64
2023/05/17 01:56:03;;;;;;;15.98;4.05;;;;;;;10.02;100.00;102630.91;4998034;28;20026;-61
2023/05/17 01:58:29;;;;;;;16.95;4.40;;;;;;;9.99;100.00;102631.78;4974553;28;20027;-63
2023/05/17 02:00:56;;;;;;;17.35;5.00;;;;;;;9.98;100.00;102625.66;4987398;28;20074;-62
2023/05/17 02:03:21;;;;;;;24.73;4.28;;;;;;;10.01;100.00;102629.13;4980377;28;20081;-61
2023/05/17 02:05:47;;;;;;;23.08;4.18;;;;;;;10.00;100.00;102625.66;4968364;28;20617;-61
2023/05/17 02:08:12;;;;;;;19.17;5.00;;;;;;;10.01;100.00;102629.13;4967406;28;20485;-63
2023/05/17 02:10:38;;;;;;;20.77;4.80;;;;;;;9.96;100.00;102626.50;4967941;28;20583;-62
2023/05/17 02:13:03;;;;;;;18.42;4.80;;;;;;;9.99;100.00;102630.03;4967674;28;20037;-62
2023/05/17 02:15:28;;;;;;;20.48;4.70;;;;;;;10.06;100.00;102632.66;4986466;28;20089;-62
2023/05/17 02:17:54;;;;;;;25.05;5.20;;;;;;;10.02;100.00;102621.22;4987025;28;20022;-63
2023/05/17 02:20:19;;;;;;;19.77;4.40;;;;;;;10.04;100.00;102619.47;4969282;28;20061;-63
2023/05/17 02:22:45;;;;;;;22.35;5.85;;;;;;;10.03;100.00;102628.28;4967493;28;20105;-63
2023/05/17 02:25:10;;;;;;;17.73;4.38;;;;;;;10.03;100.00;102628.28;4977587;28;20032;-63
2023/05/17 02:27:35;;;;;;;14.38;4.55;;;;;;;9.97;100.00;102629.16;4991014;28;20410;-61
2023/05/17 02:30:02;;;;;;;18.27;4.78;;;;;;;9.95;100.00;102630.03;4989971;28;20045;-62
2023/05/17 02:32:28;;;;;;;15.27;4.95;;;;;;;9.91;100.00;102626.56;4990870;28;20014;-61
2023/05/17 02:34:54;;;;;;;20.10;5.05;;;;;;;9.86;100.00;102623.94;5007985;28;20097;-63
2023/05/17 02:37:19;;;;;;;15.85;5.00;;;;;;;9.79;100.00;102631.84;4971209;28;20026;-62
2023/05/17 02:39:44;;;;;;;22.85;4.63;;;;;;;9.79;100.00;102632.72;4969896;28;20034;-62
2023/05/17 02:42:10;;;;;;;22.80;5.18;;;;;;;9.86;100.00;102631.81;4972053;28;20113;-62
2023/05/17 02:44:35;;;;;;;20.80;4.57;;;;;;;9.93;100.00;102635.31;4979462;28;20061;-62
2023/05/17 02:47:00;;;;;;;20.52;5.22;;;;;;;9.95;100.00;102635.31;4991027;28;20026;-62
2023/05/17 02:49:26;;;;;;;17.95;4.45;;;;;;;10.02;100.00;102631.78;4990537;28;20038;-61
2023/05/17 02:51:51;;;;;;;15.38;4.53;;;;;;;9.98;100.00;102633.56;4990588;28;20026;-63
2023/05/17 02:54:16;;;;;;;19.90;5.00;;;;;;;10.02;100.00;102638.81;4990091;28;20113;-63
2023/05/17 02:56:42;;;;;;;13.38;4.72;;;;;;;10.02;100.00;102642.31;4990936;28;20109;-63
2023/05/17 02:59:07;;;;;;;20.08;5.00;;;;;;;9.96;100.00;102643.19;4989544;28;20478;-62
2023/05/17 03:01:32;;;;;;;22.80;4.88;;;;;;;9.94;100.00;102646.72;4971822;28;20470;-63
2023/05/17 03:03:58;;;;;;;23.73;5.88;;;;;;;9.89;100.00;102640.56;4970331;28;20502;-62
2023/05/17 03:06:23;;;;;;;14.63;4.07;;;;;;;9.82;100.00;102648.47;4987208;28;20030;-62
2023/05/17 03:08:48;;;;;;;22.17;5.30;;;;;;;9.84;100.00;102644.09;4989658;28;20026;-63
2023/05/17 03:11:14;;;;;;;20.85;5.65;;;;;;;9.85;100.00;102645.84;4974871;28;20114;-62
2023/05/17 03:13:39;;;;;;;14.43;5.13;;;;;;;9.88;100.00;102649.38;4971207;28;20073;-63
2023/05/17 03:16:04;;;;;;;22.23;5.07;;;;;;;9.92;100.00;102644.09;4981486;28;20105;-63
2023/05/17 03:18:30;;;;;;;19.60;5.85;;;;;;;9.94;100.00;102652.00;4989579;28;20062;-62
2023/05/17 03:20:55;;;;;;;22.73;6.13;;;;;;;9.92;100.00;102645.84;4979229;28;20034;-62
2023/05/17 03:23:20;;;;;;;19.20;5.38;;;;;;;9.96;100.00;102652.84;4970433;28;20209;-62
2023/05/17 03:25:46;;;;;;;16.20;4.38;;;;;;;9.90;100.00;102658.16;4969066;28;20031;-62
2023/05/17 03:28:11;;;;;;;26.77;5.50;;;;;;;9.80;100.00;102650.25;4970669;28;20037;-62
2023/05/17 03:30:36;;;;;;;19.83;5.25;;;;;;;9.70;100.00;102649.38;4969794;28;20109;-62
2023/05/17 03:33:02;;;;;;;19.08;5.55;;;;;;;9.70;100.00;102653.78;4969080;28;20030;-62
2023/05/17 03:35:27;;;;;;;15.35;4.47;;;;;;;9.73;100.00;102661.69;4975970;28;20023;-63
2023/05/17 03:37:52;;;;;;;18.67;5.60;;;;;;;9.77;100.00;102658.16;4988824;28;20509;-63
2023/05/17 03:40:18;;;;;;;18.60;5.40;;;;;;;9.86;100.00;102657.25;4984221;28;20518;-61
2023/05/17 03:42:43;;;;;;;22.92;5.57;;;;;;;9.92;100.00;102667.78;4969898;28;20450;-63
2023/05/17 03:45:09;;;;;;;19.67;5.95;;;;;;;9.95;100.00;102666.91;4975600;28;20424;-62
2023/05/17 03:47:34;;;;;;;16.90;5.95;;;;;;;9.97;100.00;102675.69;4987417;28;20456;-61
2023/05/17 03:49:59;;;;;;;16.85;5.47;;;;;;;9.94;100.00;102670.44;4985136;28;20181;-61
2023/05/17 03:52:25;;;;;;;32.85;6.38;;;;;;;9.90;100.00;102677.44;4969575;28;20074;-62
2023/05/17 03:54:50;;;;;;;25.05;5.57;;;;;;;9.92;100.00;102680.97;4969207;28;20031;-62
2023/05/17 03:57:15;;;;;;;20.88;5.07;;;;;;;10.06;100.00;102683.56;4990054;28;20052;-62
2023/05/17 03:59:41;;;;;;;21.33;6.20;;;;;;;10.10;100.00;102679.16;5008711;28;20034;-62
2023/05/17 04:02:06;;;;;;;26.70;7.35;;;;;;;10.14;100.00;102687.94;4988727;28;20053;-62
2023/05/17 04:04:31;;;;;;;27.02;7.97;;;;;;;10.15;100.00;102689.69;4988976;28;20034;-62
2023/05/17 04:06:57;;;;;;;29.70;7.45;;;;;;;10.14;100.00;102687.94;4973271;28;20106;-63
2023/05/17 04:09:22;;;;;;;23.70;6.85;;;;;;;10.03;100.00;102702.03;4967834;28;20470;-61
2023/05/17 04:11:47;;;;;;;23.73;6.20;;;;;;;9.97;100.00;102697.63;4968270;28;20583;-60
2023/05/17 04:14:14;;;;;;;19.30;5.57;;;;;;;10.04;100.00;102703.78;4969529;28;20050;-63
2023/05/17 04:16:39;;;;;;;18.30;5.00;;;;;;;10.01;100.00;102703.78;4979934;28;20026;-61
2023/05/17 04:19:05;;;;;;;20.30;4.50;;;;;;;10.10;100.00;102701.13;4988173;28;20040;-63
2023/05/17 04:21:30;;;;;;;17.23;4.90;;;;;;;10.11;100.00;102712.53;4988102;28;20023;-64
2023/05/17 04:23:56;;;;;;;14.50;4.25;;;;;;;9.96;100.00;102716.03;4980215;28;20019;-63
2023/05/17 04:26:21;;;;;;;22.38;3.55;;;;;;;9.87;100.00;102719.56;4974524;28;20042;-61
2023/05/17 04:28:46;;;;;;;19.05;3.75;;;;;;;9.88;100.00;102720.47;4989066;28;20189;-63
2023/05/17 04:31:14;;;;;;;14.45;3.38;;;;;;;9.82;100.00;102724.84;4989345;28;20161;-60
2023/05/17 04:33:39;;;;;;;22.52;3.92;;;;;;;9.76;100.00;102729.25;4989198;28;20177;-61
2023/05/17 04:36:05;;;;;;;20.95;3.75;;;;;;;9.77;100.00;102731.88;4988401;28;20135;-62
2023/05/17 04:38:30;;;;;;;17.30;3.33;;;;;;;9.75;100.00;102727.50;4988521;28;20034;-62
2023/05/17 04:41:06;;;;;;;12.60;3.08;;;;;;;9.73;100.00;102735.38;4988110;28;20179;-62
2023/05/17 04:43:32;;;;;;;16.63;3.47;;;;;;;9.74;100.00;102739.78;4982478;28;20023;-63
2023/05/17 04:45:57;;;;;;;15.50;3.33;;;;;;;9.73;100.00;102746.78;4977308;28;20046;-60
2023/05/17 04:48:24;;;;;;;17.05;3.70;;;;;;;9.75;100.00;102741.50;4988345;28;20045;-62
2023/05/17 04:50:49;;;;;;;16.25;3.22;;;;;;;9.75;100.00;102753.81;4986886;28;20393;-62
2023/05/17 04:53:15;;;;;;;17.08;3.28;;;;;;;9.78;100.00;102752.03;5001717;28;20030;-61
2023/05/17 04:55:40;;;;;;;20.52;3.78;;;;;;;9.78;100.00;102753.81;4968465;28;20023;-61
2023/05/17 04:58:06;;;;;;;16.80;3.72;;;;;;;9.86;100.00;102760.84;4983614;28;20033;-61
2023/05/17 05:00:31;;;;;;;21.98;3.70;;;;;;;9.91;100.00;102765.22;4988073;28;20026;-62
2023/05/17 05:02:56;;;;;;;15.35;3.50;;;;;;;9.97;100.00;102767.88;4987373;28;20073;-63
2023/05/17 05:05:23;;;;;;;29.75;3.80;;;;;;;9.93;100.00;102768.75;4986290;28;20388;-62
2023/05/17 05:07:49;;;;;;;21.48;3.83;;;;;;;10.01;100.00;102772.25;4982522;28;20405;-62
2023/05/17 05:10:14;;;;;;;18.88;3.50;;;;;;;10.11;100.00;102774.00;4967489;28;20029;-62
2023/05/17 05:12:40;;;;;;;23.95;3.80;;;;;;;10.18;100.00;102784.53;4968511;28;20023;-62
2023/05/17 05:15:06;;;;;;;19.10;3.42;;;;;;;10.22;100.00;102779.25;4967895;28;20049;-64
2023/05/17 05:17:32;;;;;;;22.35;3.92;;;;;;;10.30;100.00;102787.13;4968028;28;20030;-62
2023/05/17 05:19:57;;;;;;;15.07;3.88;;;;;;;10.20;100.00;102788.03;4967345;28;20127;-64
2023/05/17 05:22:23;;;;;;;20.52;3.75;;;;;;;10.28;100.00;102783.63;4980532;28;20071;-61
2023/05/17 05:24:48;;;;;;;19.27;4.22;;;;;;;10.39;100.00;102788.00;4986883;28;20492;-61
2023/05/17 05:27:14;;;;;;;19.58;4.18;;;;;;;10.44;100.00;102799.41;4975962;28;20027;-61
2023/05/17 05:29:41;;;;;;;21.17;4.63;;;;;;;10.48;100.00;102791.53;4968524;28;20085;-64
2023/05/17 05:32:07;;;;;;;16.85;3.83;;;;;;;10.54;100.00;102798.53;4975687;28;20474;-63
2023/05/17 05:34:32;;;;;;;26.33;5.03;;;;;;;10.53;100.00;102799.44;4987987;28;20102;-63
2023/05/17 05:36:57;;;;;;;23.38;4.35;;;;;;;10.61;100.00;102802.06;4981540;28;20069;-62
2023/05/17 05:39:23;;;;;;;26.42;4.15;;;;;;;10.70;100.00;102809.06;4986447;28;20058;-62
2023/05/17 05:41:48;;;;;;;19.70;4.20;;;;;;;10.84;100.00;102811.66;4986666;28;20057;-61
2023/05/17 05:44:13;;;;;;;19.30;3.17;;;;;;;10.92;100.00;102825.69;4986633;28;20026;-63
2023/05/17 05:46:39;;;;;;;16.85;3.25;;;;;;;10.97;100.00;102825.69;4986513;28;20030;-61
2023/05/17 05:49:04;;;;;;;22.75;3.25;;;;;;;11.06;100.00;102828.28;4985536;28;20037;-61
2023/05/17 05:51:30;;;;;;;25.20;3.28;;;;;;;10.98;100.00;102836.22;4986821;28;20034;-62
2023/05/17 05:53:55;;;;;;;23.33;4.32;;;;;;;11.14;100.00;102835.28;4973412;28;20035;-61
2023/05/17 05:56:21;;;;;;;21.83;3.45;;;;;;;11.07;100.00;102832.69;4966900;28;20038;-63
2023/05/17 05:58:46;;;;;;;18.60;3.47;;;;;;;11.22;100.00;102833.47;4976983;28;20507;-63
2023/05/17 06:01:11;;;;;;;16.70;3.17;;;;;;;11.23;100.00;102840.53;4986963;28;20581;-65
2023/05/17 06:03:37;;;;;;;22.55;3.38;;;;;;;11.15;100.00;102837.03;4986183;28;20029;-61
2023/05/17 06:06:02;;;;;;;20.10;3.45;;;;;;;11.15;100.00;102837.03;4987590;28;20030;-60
2023/05/17 06:08:28;;;;;;;19.55;2.88;;;;;;;11.30;100.00;102847.53;4980726;28;20073;-61
2023/05/17 06:10:53;;;;;;;15.52;2.58;;;;;;;11.35;100.00;102850.16;4976729;28;20048;-61
2023/05/17 06:13:18;;;;;;;13.77;3.08;;;;;;;11.37;100.00;102848.38;4977984;28;20037;-60
2023/05/17 06:15:44;;;;;;;15.55;3.22;;;;;;;11.53;100.00;102843.88;4969513;28;20027;-62
2023/05/17 06:18:09;;;;;;;21.45;3.33;;;;;;;11.59;100.00;102843.00;4980929;28;20038;-60
2023/05/17 06:20:34;;;;;;;20.13;2.80;;;;;;;11.76;100.00;102845.50;4987573;28;20023;-62
2023/05/17 06:23:00;;;;;;;19.50;3.15;;;;;;;11.99;100.00;102842.72;4986216;28;20253;-61
2023/05/17 06:25:26;;;;;;;19.83;3.28;;;;;;;12.28;100.00;102839.88;4985250;28;20031;-62
2023/05/17 06:27:51;;;;;;;19.40;2.78;;;;;;;12.51;100.00;102850.22;4985996;28;20030;-62
2023/05/17 06:30:16;;;;;;;17.00;2.90;;;;;;;12.73;100.00;102855.28;4978147;28;20042;-60
2023/05/17 06:32:41;;;;;;;20.42;3.35;;;;;;;12.72;100.00;102867.66;4968365;28;20037;-63
2023/05/17 06:35:07;;;;;;;18.77;2.63;;;;;;;12.70;100.00;102861.50;4974969;28;20060;-63
2023/05/17 06:37:33;;;;;;;17.17;3.03;;;;;;;12.84;100.00;102856.06;4983184;28;20022;-62
2023/05/17 06:40:09;;;;;;;18.35;3.28;;;;;;;12.82;100.00;102855.19;4975587;28;20051;-62
2023/05/17 06:42:34;;;;;;;23.45;3.38;;;;;;;12.81;100.00;102858.75;5011103;28;20046;-62
2023/05/17 06:45:00;;;;;;;19.77;2.33;;;;;;;12.91;100.00;102853.34;4971448;28;20601;-60
2023/05/17 06:47:25;;;;;;;20.50;2.97;;;;;;;13.01;100.00;102860.28;4987685;28;20101;-60
2023/05/17 06:49:50;;;;;;;18.00;2.60;;;;;;;12.95;100.00;102860.34;4985913;28;20029;-63
2023/05/17 06:52:16;;;;;;;16.30;2.50;;;;;;;12.94;99.27;102863.91;4969095;28;20053;-61
2023/05/17 06:54:41;;;;;;;13.57;2.40;;;;;;;12.76;99.09;102861.44;4976014;28;20034;-62
2023/05/17 06:57:08;;;;;;;22.88;3.35;;;;;;;12.79;98.79;102867.59;4979823;28;20022;-64
2023/05/17 06:59:34;;;;;;;18.70;2.53;;;;;;;12.72;98.20;102874.69;4977513;28;20096;-62
2023/05/17 07:01:59;;;;;;;23.08;2.58;;;;;;;12.66;98.93;102880.03;4980127;28;20571;-62
2023/05/17 07:04:25;;;;;;;13.25;2.45;;;;;;;12.53;99.14;102874.91;4976696;28;20038;-63
2023/05/17 07:06:50;;;;;;;12.90;2.00;;;;;;;12.43;98.73;102881.16;4979582;28;20386;-61
2023/05/17 07:09:17;;;;;;;11.95;2.47;;;;;;;12.22;98.49;102883.09;4973268;28;20062;-61
2023/05/17 07:11:42;;;;;;;11.23;2.75;;;;;;;12.10;99.40;102892.00;4979814;28;20324;-62
2023/05/17 07:14:08;;;;;;;16.63;2.63;;;;;;;11.92;100.00;102890.31;4974572;28;20037;-62
2023/05/17 07:16:33;;;;;;;14.02;2.58;;;;;;;11.91;100.00;102891.19;4989925;28;20594;-62
2023/05/17 07:18:58;;;;;;;18.00;2.55;;;;;;;11.97;100.00;102893.78;4973360;28;20034;-61
2023/05/17 07:21:24;;;;;;;13.18;2.15;;;;;;;12.05;100.00;102899.03;4985647;28;20274;-61
2023/05/17 07:23:49;;;;;;;14.05;2.20;;;;;;;11.98;99.10;102899.06;4981399;28;20486;-60
2023/05/17 07:26:18;;;;;;;17.42;2.88;;;;;;;12.11;98.12;102893.75;4980098;28;20070;-62
2023/05/17 07:28:43;;;;;;;9.60;1.60;;;;;;;12.18;95.30;102899.84;4984830;28;20122;-62
2023/05/17 07:31:08;;;;;;;11.70;2.00;;;;;;;12.27;94.09;102899.78;4978775;28;20357;-61
2023/05/17 07:33:34;;;;;;;12.68;2.40;;;;;;;12.36;94.59;102902.34;4982599;28;20023;-60
2023/05/17 07:35:59;;;;;;;10.20;1.95;;;;;;;12.61;92.25;102904.78;4981923;28;20034;-60
2023/05/17 07:38:24;;;;;;;13.70;2.00;;;;;;;12.59;91.85;102908.34;4991034;28;20038;-62
2023/05/17 07:40:50;;;;;;;14.70;2.53;;;;;;;12.58;90.51;102910.09;4986312;28;20858;-62
2023/05/17 07:43:15;;;;;;;12.18;2.38;;;;;;;12.62;92.36;102905.66;4989690;28;20365;-62
2023/05/17 07:45:42;;;;;;;8.43;1.90;;;;;;;12.47;91.44;102919.91;4980774;28;20686;-61
2023/05/17 07:48:07;;;;;;;9.10;1.55;;;;;;;12.56;89.88;102911.00;4984304;28;20037;-61
2023/05/17 07:50:33;;;;;;;9.68;2.00;;;;;;;12.61;90.09;102912.72;4982261;28;20022;-61
2023/05/17 07:52:58;;;;;;;19.35;2.40;;;;;;;12.58;89.21;102927.75;4985133;28;20050;-61
2023/05/17 07:55:23;;;;;;;10.55;1.92;;;;;;;12.64;87.99;102919.72;4980542;28;20073;-62
2023/05/17 07:57:49;;;;;;;10.82;2.33;;;;;;;12.66;87.62;102911.78;4980124;28;20031;-61
2023/05/17 08:00:18;;;;;;;10.70;1.33;;;;;;;12.64;90.63;102915.31;4978936;28;20528;-60
2023/05/17 08:02:43;;;;;;;13.63;2.17;;;;;;;12.88;90.53;102917.72;4986432;28;20042;-62
2023/05/17 08:05:08;;;;;;;11.88;2.03;;;;;;;12.85;89.83;102929.22;4978244;28;20117;-62
2023/05/17 08:07:34;;;;;;;10.65;1.75;;;;;;;12.92;89.90;102930.06;4981265;28;20109;-62
2023/05/17 08:09:59;;;;;;;8.65;1.80;;;;;;;13.04;90.38;102923.78;4977051;28;20034;-63
2023/05/17 08:12:24;;;;;;;14.32;2.10;;;;;;;13.04;91.24;102923.78;4980734;28;20576;-62
2023/05/17 08:14:50;;;;;;;15.43;2.08;;;;;;;12.93;89.74;102929.16;4979456;28;20096;-64
2023/05/17 08:17:15;;;;;;;11.63;2.10;;;;;;;12.83;91.28;102931.03;4984537;28;20050;-61
2023/05/17 08:19:41;;;;;;;10.50;1.88;;;;;;;12.66;91.28;102938.22;4980508;28;20038;-63
2023/05/17 08:22:06;;;;;;;5.97;1.50;;;;;;;12.70;89.73;102930.25;4982706;28;20037;-61
2023/05/17 08:24:31;;;;;;;16.63;2.13;;;;;;;12.63;89.66;102934.75;4983578;28;20502;-62
2023/05/17 08:26:57;;;;;;;14.88;2.20;;;;;;;12.54;89.10;102937.47;4987444;28;20061;-63
2023/05/17 08:29:22;;;;;;;9.77;1.85;;;;;;;12.72;89.28;102932.88;4988492;28;20050;-64
2023/05/17 08:31:48;;;;;;;9.63;2.20;;;;;;;12.87;86.64;102937.16;4979455;28;20466;-64
2023/05/17 08:34:13;;;;;;;10.02;1.98;;;;;;;12.84;86.42;102943.38;4978914;28;20026;-62
2023/05/17 08:36:38;;;;;;;7.93;1.77;;;;;;;13.04;86.59;102929.06;4979072;28;20102;-60
2023/05/17 08:39:04;;;;;;;12.93;1.88;;;;;;;13.22;85.06;102940.34;4975473;28;20034;-63
2023/05/17 08:41:30;;;;;;;7.57;1.45;;;;;;;13.24;83.42;102928.81;4976284;28;20023;-65
2023/05/17 08:43:55;;;;;;;12.48;1.92;;;;;;;13.23;82.90;102942.06;4985531;28;20027;-61
2023/05/17 08:46:22;;;;;;;11.75;2.15;;;;;;;13.09;84.90;102943.09;5007694;28;20437;-61
2023/05/17 08:48:52;;;;;;;12.52;2.22;;;;;;;13.09;81.85;102937.81;4975492;28;20034;-61
2023/05/17 08:51:18;;;;;;;6.55;1.73;;;;;;;12.93;85.24;102936.22;4969915;28;20034;-63
2023/05/17 08:53:46;;;;;;;13.57;1.90;;;;;;;13.09;85.13;102936.91;4984415;28;20061;-64
2023/05/17 08:56:13;;;;;;;9.20;1.88;;;;;;;13.03;85.42;102943.16;5017901;28;20033;-64
2023/05/17 08:58:42;;;;;;;11.85;1.95;;;;;;;12.89;85.14;102936.25;4985923;28;20092;-62
2023/05/17 09:01:08;;;;;;;;;;;;;;;13.31;83.68;102936.69;4987052;28;20077;-62
2023/05/17 09:03:34;;;;;;;12.25;1.95;;;;;;;13.34;82.60;102932.22;4976566;28;20057;-63
2023/05/17 09:05:59;;;;;;;9.02;1.65;;;;;;;13.11;85.54;102933.38;4975968;28;20047;-60
2023/05/17 09:08:25;;;;;;;14.00;1.85;;;;;;;13.38;84.93;102936.63;4981521;28;20034;-62
2023/05/17 09:10:51;;;;;;;8.80;2.22;;;;;;;13.37;80.96;102937.47;4979694;28;20041;-63
2023/05/17 09:13:16;;;;;;;7.68;1.95;;;;;;;13.13;81.65;102936.88;4979276;28;20019;-62
2023/05/17 09:15:42;;;;;;;12.57;2.20;;;;;;;13.28;81.44;102945.56;4983802;28;20019;-63
2023/05/17 09:18:10;;;;;;;10.18;1.67;;;;;;;12.95;81.56;102935.34;4977636;28;20022;-62
2023/05/17 09:20:37;;;;;;;11.45;1.88;;;;;;;13.18;81.07;102944.78;4979657;28;20026;-63
2023/05/17 09:23:03;;;;;;;5.57;1.92;;;;;;;13.27;81.87;102941.13;4976414;28;20045;-62
2023/05/17 09:25:30;;;;;;;14.07;2.60;;;;;;;13.46;82.05;102935.63;4986357;28;20018;-64
2023/05/17 09:27:59;;;;;;;15.80;1.90;;;;;;;13.34;82.40;102941.97;4976006;28;20034;-62
2023/05/17 09:30:33;;;;;;;8.93;1.70;;;;;;;13.34;82.50;102941.97;4984638;28;20041;-64
2023/05/17 09:33:07;;;;;;;6.45;1.60;;;;;;;13.69;81.39;102950.41;4985862;28;20075;-62
2023/05/17 09:35:34;;;;;;;13.75;2.03;;;;;;;13.78;84.47;102942.31;4978979;28;20109;-62
2023/05/17 09:38:10;;;;;;;9.63;2.10;;;;;;;13.82;84.67;102938.72;4976827;28;20030;-62
2023/05/17 09:40:39;;;;;;;17.52;2.50;;;;;;;13.88;85.31;102945.72;4973353;28;20063;-63
2023/05/17 09:43:04;;;;;;;11.13;1.88;;;;;;;13.86;85.26;102945.75;4974380;28;20109;-65
2023/05/17 09:45:33;;;;;;;12.10;1.75;;;;;;;14.06;85.88;102941.91;4976081;28;20025;-61
2023/05/17 09:48:16;;;;;;;10.68;2.15;;;;;;;13.89;84.30;102935.09;4981719;28;20110;-63
2023/05/17 09:50:45;;;;;;;15.60;2.00;;;;;;;14.03;84.26;102948.13;4973280;28;20030;-61
2023/05/17 09:53:29;;;;;;;;;;;;;;;14.17;84.72;102938.25;4980837;28;20026;-62
2023/05/17 09:55:57;;;;;;;13.75;1.95;;;;;;;14.20;83.68;102946.13;4980711;28;19940;-65
2023/05/17 09:58:23;;;;;;;9.80;2.50;;;;;;;14.42;83.95;102945.78;4986137;28;20069;-63
2023/05/17 10:01:00;;;;;;;14.98;1.95;;;;;;;14.35;81.81;102945.88;4973150;28;20577;-64
2023/05/17 10:03:28;;;;;;;11.55;2.00;;;;;;;14.20;82.03;102944.34;4964724;28;20082;-63
2023/05/17 10:05:53;;;;;;;13.73;1.90;;;;;;;14.30;82.50;102942.41;4964760;28;20030;-62
2023/05/17 10:08:21;;;;;;;7.25;1.70;;;;;;;14.37;81.22;102946.75;4967333;28;20046;-63
2023/05/17 10:10:48;;;;;;;12.13;1.90;;;;;;;14.12;81.26;102946.25;4976877;28;20037;-62
2023/05/17 10:13:14;;;;;;;7.78;1.75;;;;;;;14.22;82.78;102946.97;4986884;28;20034;-63
2023/05/17 10:15:41;;;;;;;9.73;1.73;;;;;;;14.33;79.51;102944.16;4975805;28;20685;-65
2023/05/17 10:18:08;;;;;;;7.32;1.98;;;;;;;14.38;81.55;102944.94;4978483;28;20022;-62
2023/05/17 10:20:33;;;;;;;10.50;2.15;;;;;;;14.63;81.05;102941.91;5006741;28;20552;-63
2023/05/17 10:22:59;;;;;;;11.93;2.10;;;;;;;14.75;81.00;102935.50;4985148;28;20039;-63
2023/05/17 10:25:25;;;;;;;10.45;2.03;;;;;;;14.87;79.75;102948.56;4985153;28;20023;-60
2023/05/17 10:27:51;;;;;;;14.13;2.25;;;;;;;14.64;80.27;102954.25;4985614;28;20113;-65
2023/05/17 10:30:17;;;;;;;12.85;2.47;;;;;;;14.68;79.98;102947.09;4975895;28;20471;-65
2023/05/17 10:32:44;;;;;;;8.65;1.75;;;;;;;14.85;80.25;102941.53;4977796;28;20026;-65
2023/05/17 10:35:13;;;;;;;12.85;1.92;;;;;;;14.93;80.31;102944.06;4981827;28;20105;-63
2023/05/17 10:37:40;;;;;;;11.85;1.88;;;;;;;14.85;79.25;102939.78;5007894;28;20054;-64
2023/05/17 10:40:06;;;;;;;8.40;2.20;;;;;;;15.03;77.71;102940.31;4977236;28;20033;-61
2023/05/17 10:42:32;;;;;;;8.43;1.70;;;;;;;15.09;78.17;102934.91;4974623;28;20026;-62
2023/05/17 10:44:59;;;;;;;10.85;1.92;;;;;;;14.70;77.56;102940.91;4983986;28;20034;-65
2023/05/17 10:47:31;;;;;;;15.52;2.47;;;;;;;14.89;78.35;102940.56;4978940;28;20023;-65
2023/05/17 10:49:57;;;;;;;11.10;2.50;;;;;;;15.11;77.29;102948.16;4981295;28;20074;-62
2023/05/17 10:52:22;;;;;;;7.20;1.60;;;;;;;15.15;77.91;102947.19;4980724;28;20030;-62
2023/05/17 10:54:51;;;;;;;6.43;1.77;;;;;;;15.22;76.67;102953.22;4977407;28;20038;-63
2023/05/17 10:57:41;;;;;;;9.00;1.90;;;;;;;15.19;76.63;102950.63;4981481;28;20462;-64
2023/05/17 11:00:08;;;;;;;11.18;2.15;;;;;;;15.01;77.65;102947.44;4982354;28;20047;-61
2023/05/17 11:02:34;;;;;;;9.65;1.90;;;;;;;14.78;80.70;102946.09;4979440;28;20044;-62
2023/05/17 11:05:00;;;;;;;5.47;1.70;;;;;;;14.96;79.15;102950.16;4975081;28;20027;-64
2023/05/17 11:07:31;;;;;;;6.43;1.92;;;;;;;15.02;77.97;102950.06;4978097;28;20422;-65
2023/05/17 11:10:04;;;;;;;12.65;2.30;;;;;;;15.31;77.54;102954.81;4979074;28;20037;-64
2023/05/17 11:12:52;;;;;;;8.75;1.67;;;;;;;15.40;78.58;102950.22;4985674;28;20027;-64
2023/05/17 11:15:22;;;;;;;8.73;1.73;;;;;;;15.46;77.02;102943.00;4976353;28;20026;-65